Aviation Digital Data Service (ADDS)

Output produced by METARs form (1344 UTC 10 July 2020)
found at http://www.aviationweather.gov/metar/data/
 
KMCO 101253Z 28006KT 10SM -RA FEW015 SCT038 OVC065 25/24 A2999 RMK AO2 LTG DSNT W SLP155 P0002 T02500239
KMCO 101127Z 1012/1118 26006KT P6SM VCTS FEW020CB BKN070 BKN300 
     TEMPO 1012/1013 3SM TSRA SCT010 BKN025CB 
     FM101400 27007KT P6SM VCSH SCT030 SCT060 BKN300 
     FM101600 28009KT P6SM VCTS SCT035CB BKN060 
     TEMPO 1016/1018 3SM TSRA BKN030CB 
     FM102200 27006KT P6SM VCSH SCT040 SCT100 SCT250 
     FM110400 24004KT P6SM FEW040 SCT250 
     FM111400 27006KT P6SM SCT040 SCT250